createdAt,value
2018-02-18T00:00:54.186Z,52.30
2018-02-18T00:03:24.114Z,47.25
2018-02-18T00:05:55.286Z,47.92
2018-02-18T00:08:25.206Z,49.20
2018-02-18T00:11:03.586Z,42.95
2018-02-18T00:13:37.350Z,50.53
2018-02-18T00:16:08.038Z,45.12
2018-02-18T00:18:38.097Z,46.17
2018-02-18T00:21:07.770Z,48.60
2018-02-18T00:23:36.773Z,55.65
2018-02-18T00:26:04.786Z,50.15
2018-02-18T00:28:32.818Z,51.90
2018-02-18T00:31:04.358Z,51.50
2018-02-18T00:33:33.370Z,55.80
2018-02-18T00:36:11.525Z,43.42
2018-02-18T00:38:40.542Z,48.40
2018-02-18T00:41:08.582Z,55.55
2018-02-18T00:43:44.642Z,59.65
2018-02-18T00:46:18.765Z,55.78
2018-02-18T00:49:03.042Z,49.85
2018-02-18T00:51:33.062Z,43.35
2018-02-18T00:54:01.963Z,48.60
2018-02-18T00:56:29.985Z,50.92
2018-02-18T00:59:01.425Z,52.03
2018-02-18T01:01:30.457Z,52.40
2018-02-18T01:04:00.475Z,53.25
2018-02-18T01:06:30.260Z,55.63
2018-02-18T01:08:58.293Z,50.97
2018-02-18T01:11:28.054Z,56.15
2018-02-18T01:14:00.057Z,49.95
2018-02-18T01:16:30.757Z,44.10
2018-02-18T01:18:58.781Z,49.70
2018-02-18T01:21:32.525Z,46.10
2018-02-18T01:24:10.837Z,60.28
2018-02-18T01:26:44.845Z,51.10
2018-02-18T01:29:19.345Z,49.25
2018-02-18T01:31:48.371Z,48.65
2018-02-18T01:34:20.025Z,50.63
2018-02-18T01:36:55.701Z,42.15
2018-02-18T01:39:29.605Z,47.13
2018-02-18T01:42:00.317Z,41.47
2018-02-18T01:44:30.325Z,46.83
2018-02-18T01:46:59.330Z,43.63
2018-02-18T01:49:31.970Z,55.70
2018-02-18T01:52:01.925Z,48.53
2018-02-18T01:54:30.900Z,57.40
2018-02-18T01:57:02.469Z,44.25
2018-02-18T01:59:32.481Z,46.40
2018-02-18T02:02:11.553Z,60.10
2018-02-18T02:04:39.593Z,56.90
2018-02-18T02:07:10.329Z,57.17
2018-02-18T02:09:43.181Z,55.72
2018-02-18T02:12:25.338Z,43.90
2018-02-18T02:14:56.525Z,57.92
2018-02-18T02:17:25.540Z,51.75
2018-02-18T02:19:57.105Z,47.72
2018-02-18T02:22:25.900Z,48.63
2018-02-18T02:24:57.877Z,50.53
2018-02-18T02:27:29.593Z,52.70
2018-02-18T02:29:59.477Z,46.50
2018-02-18T02:32:44.722Z,33.75
2018-02-18T02:35:32.150Z,52.65
2018-02-18T02:38:11.401Z,48.33
2018-02-18T02:40:39.448Z,40.50
2018-02-18T02:43:08.397Z,49.60
2018-02-18T02:45:41.754Z,52.78
2018-02-18T02:48:17.505Z,52.30
2018-02-18T02:50:45.529Z,43.80
2018-02-18T02:53:19.638Z,39.67
2018-02-18T02:55:49.597Z,41.95
2018-02-18T02:58:18.517Z,53.72
2018-02-18T03:00:46.553Z,47.70
2018-02-18T03:03:16.577Z,39.45
2018-02-18T03:05:45.484Z,48.90
2018-02-18T03:08:14.540Z,37.22
2018-02-18T03:10:42.565Z,42.10
2018-02-18T03:13:10.589Z,47.62
2018-02-18T03:15:40.509Z,40.60
2018-02-18T03:18:08.529Z,42.90
2018-02-18T03:20:36.566Z,39.00
2018-02-18T03:23:11.828Z,31.77
2018-02-18T03:25:40.889Z,36.90
2018-02-18T03:28:26.021Z,34.22
2018-02-18T03:30:54.890Z,33.78
2018-02-18T03:33:22.920Z,38.78
2018-02-18T03:35:52.677Z,43.75
2018-02-18T03:38:21.656Z,37.70
2018-02-18T03:40:54.321Z,46.30
2018-02-18T03:43:34.737Z,40.55
2018-02-18T03:46:12.548Z,45.28
2018-02-18T03:48:46.476Z,31.65
2018-02-18T03:51:16.441Z,33.97
2018-02-18T03:53:45.241Z,30.85
2018-02-18T03:56:17.016Z,29.48
2018-02-18T03:58:50.005Z,40.72
2018-02-18T04:01:18.920Z,33.30
2018-02-18T04:04:01.917Z,52.15
2018-02-18T04:06:42.897Z,50.72
2018-02-18T04:09:19.676Z,46.42
2018-02-18T04:11:53.717Z,47.65
2018-02-18T04:14:22.712Z,46.95
2018-02-18T04:16:55.380Z,36.47
2018-02-18T04:19:23.412Z,36.38
2018-02-18T04:21:51.429Z,38.50
2018-02-18T04:24:21.484Z,37.17
2018-02-18T04:26:50.420Z,39.75
2018-02-18T04:29:18.444Z,44.20
2018-02-18T04:32:06.904Z,44.17
2018-02-18T04:34:34.927Z,34.53
2018-02-18T04:37:16.008Z,32.63
2018-02-18T04:39:44.072Z,50.58
2018-02-18T04:42:12.092Z,37.30
2018-02-18T04:44:41.020Z,35.83
2018-02-18T04:47:12.616Z,45.20
2018-02-18T04:49:42.468Z,36.47
2018-02-18T04:52:18.820Z,46.35
2018-02-18T04:54:46.836Z,47.88
2018-02-18T04:57:19.448Z,46.70
2018-02-18T04:59:47.500Z,38.90
2018-02-18T05:02:17.296Z,42.30
2018-02-18T05:04:46.280Z,42.95
2018-02-18T05:07:18.972Z,39.20
2018-02-18T05:09:47.952Z,34.25
2018-02-18T05:12:16.894Z,37.28
2018-02-18T05:14:45.884Z,44.97
2018-02-18T05:17:16.904Z,39.90
2018-02-18T05:19:48.824Z,36.65
2018-02-18T05:22:18.676Z,37.92
2018-02-18T05:24:49.496Z,46.10
2018-02-18T05:27:17.520Z,36.35
2018-02-18T05:29:46.336Z,45.33
2018-02-18T05:32:14.356Z,45.05
2018-02-18T05:34:43.280Z,41.40
2018-02-18T05:37:31.415Z,39.08
2018-02-18T05:39:59.436Z,54.63
2018-02-18T05:42:30.263Z,43.83
2018-02-18T05:45:03.532Z,31.87
2018-02-18T05:47:31.596Z,42.08
2018-02-18T05:49:59.640Z,40.60
2018-02-18T05:52:29.568Z,35.63
2018-02-18T05:55:04.668Z,42.10
2018-02-18T05:57:37.840Z,36.67
2018-02-18T06:00:19.020Z,35.75
2018-02-18T06:02:48.730Z,36.70
2018-02-18T06:05:24.104Z,35.97
2018-02-18T06:07:57.238Z,32.30
2018-02-18T06:10:31.719Z,43.40
2018-02-18T06:13:06.592Z,37.10
2018-02-18T06:15:40.356Z,31.35
2018-02-18T06:18:09.392Z,49.17
2018-02-18T06:20:37.419Z,43.00
2018-02-18T06:23:10.800Z,38.55
2018-02-18T06:25:38.852Z,52.08
2018-02-18T06:28:12.243Z,32.40
2018-02-18T06:30:42.946Z,43.45
2018-02-18T06:33:16.668Z,45.17
2018-02-18T06:35:47.380Z,37.13
2018-02-18T06:38:19.888Z,40.33
2018-02-18T06:40:55.391Z,44.35
2018-02-18T06:43:23.432Z,36.83
2018-02-18T06:45:51.487Z,50.28
2018-02-18T06:48:31.502Z,31.58
2018-02-18T06:51:03.459Z,49.65
2018-02-18T06:53:34.939Z,37.65
2018-02-18T06:56:05.696Z,37.22
2018-02-18T06:58:40.948Z,38.50
2018-02-18T07:01:13.700Z,40.88
2018-02-18T07:03:41.751Z,52.05
2018-02-18T07:06:10.555Z,46.22
2018-02-18T07:08:38.623Z,39.15
2018-02-18T07:11:12.033Z,36.67
2018-02-18T07:13:40.107Z,49.22
2018-02-18T07:16:13.452Z,36.95
2018-02-18T07:18:42.363Z,40.97
2018-02-18T07:21:13.080Z,36.88
2018-02-18T07:23:41.099Z,37.38
2018-02-18T07:26:09.160Z,41.92
2018-02-18T07:28:38.095Z,47.75
2018-02-18T07:31:09.877Z,40.25
2018-02-18T07:33:38.667Z,51.10
2018-02-18T07:36:08.487Z,47.03
2018-02-18T07:38:39.927Z,59.03
2018-02-18T07:41:09.707Z,59.08
2018-02-18T07:43:37.727Z,41.08
2018-02-18T07:46:05.752Z,50.20
2018-02-18T07:48:33.779Z,44.30
2018-02-18T07:51:01.855Z,44.65
2018-02-18T07:53:29.870Z,40.20
2018-02-18T07:55:59.891Z,28.30
2018-02-18T07:58:29.827Z,34.55
2018-02-18T08:00:58.634Z,30.92
2018-02-18T08:03:27.624Z,26.62
2018-02-18T08:05:55.659Z,28.95
2018-02-18T08:08:25.603Z,21.73
2018-02-18T08:10:53.627Z,25.35
2018-02-18T08:13:26.602Z,22.15
2018-02-18T08:15:54.634Z,19.12
2018-02-18T08:18:22.647Z,25.92
2018-02-18T08:20:50.675Z,22.58
2018-02-18T08:23:18.708Z,23.23
2018-02-18T08:25:51.303Z,20.30
2018-02-18T08:28:21.079Z,20.02
2018-02-18T08:30:52.739Z,19.17
2018-02-18T08:33:20.759Z,17.40
2018-02-18T08:35:49.688Z,19.15
2018-02-18T08:38:28.563Z,19.48
2018-02-18T08:40:56.571Z,19.55
2018-02-18T08:43:24.599Z,23.30
2018-02-18T08:45:52.675Z,17.60
2018-02-18T08:48:21.479Z,21.48
2018-02-18T08:50:56.311Z,19.73
2018-02-18T08:53:24.351Z,18.77
2018-02-18T08:55:52.379Z,20.73
2018-02-18T08:58:20.443Z,18.83
2018-02-18T09:00:48.471Z,20.20
2018-02-18T09:03:16.499Z,22.02
2018-02-18T09:05:44.539Z,20.27
2018-02-18T09:08:12.571Z,23.38
2018-02-18T09:10:42.242Z,22.10
2018-02-18T09:13:10.287Z,21.65
2018-02-18T09:15:39.891Z,24.30
2018-02-18T09:18:07.945Z,18.95
2018-02-18T09:20:36.871Z,29.20
2018-02-18T09:23:04.911Z,23.02
2018-02-18T09:25:32.939Z,26.07
2018-02-18T09:28:00.952Z,22.47
2018-02-18T09:30:29.980Z,27.77
2018-02-18T09:32:58.983Z,27.70
2018-02-18T09:35:27.951Z,26.90
2018-02-18T09:37:55.999Z,25.00
2018-02-18T09:40:27.431Z,30.27
2018-02-18T09:42:55.514Z,21.70
2018-02-18T09:45:33.679Z,23.07
2018-02-18T09:48:01.709Z,28.00
2018-02-18T09:50:29.707Z,28.17
2018-02-18T09:53:01.371Z,26.73
2018-02-18T09:55:29.382Z,28.92
2018-02-18T09:57:58.455Z,26.92
2018-02-18T10:00:29.179Z,22.85
2018-02-18T10:02:57.999Z,25.35
2018-02-18T10:05:29.495Z,24.52
2018-02-18T10:08:08.083Z,25.98
2018-02-18T10:10:36.091Z,26.85
2018-02-18T10:13:04.107Z,23.77
2018-02-18T10:15:35.819Z,26.42
2018-02-18T10:18:07.647Z,21.95
2018-02-18T10:20:40.320Z,24.35
2018-02-18T10:23:16.639Z,25.58
2018-02-18T10:25:45.411Z,24.45
2018-02-18T10:28:13.440Z,23.50
2018-02-18T10:30:45.111Z,23.77
2018-02-18T10:33:13.243Z,29.10
2018-02-18T10:35:41.255Z,26.05
2018-02-18T10:38:09.283Z,27.98
2018-02-18T10:40:37.294Z,26.55
2018-02-18T10:43:10.059Z,23.38
2018-02-18T10:45:39.987Z,20.70
2018-02-18T10:48:07.987Z,22.05
2018-02-18T10:50:36.786Z,23.75
2018-02-18T10:53:05.158Z,20.17
2018-02-18T10:55:34.942Z,20.92
2018-02-18T10:58:03.927Z,20.27
2018-02-18T11:00:41.327Z,23.67
2018-02-18T11:03:12.462Z,25.17
2018-02-18T11:05:41.591Z,21.70
2018-02-18T11:08:11.566Z,19.55
2018-02-18T11:10:40.546Z,19.77
2018-02-18T11:13:10.578Z,24.40
2018-02-18T11:15:38.594Z,20.50
2018-02-18T11:18:06.614Z,21.08
2018-02-18T11:20:34.654Z,21.23
2018-02-18T11:23:03.434Z,21.62
2018-02-18T11:25:31.453Z,26.40
2018-02-18T11:28:00.437Z,23.00
2018-02-18T11:30:31.953Z,17.95
2018-02-18T11:32:59.978Z,22.35
2018-02-18T11:35:29.668Z,19.40
2018-02-18T11:37:57.690Z,19.73
2018-02-18T11:40:25.730Z,18.73
2018-02-18T11:42:54.526Z,22.80
2018-02-18T11:45:23.358Z,21.65
2018-02-18T11:47:51.380Z,18.80
2018-02-18T11:50:23.262Z,20.58
2018-02-18T11:52:58.406Z,23.58
2018-02-18T11:55:26.426Z,18.58
2018-02-18T11:57:54.470Z,21.15
2018-02-18T12:00:22.486Z,21.05
2018-02-18T12:02:52.267Z,20.37
2018-02-18T12:05:20.286Z,21.17
2018-02-18T12:07:48.330Z,21.12
2018-02-18T12:10:16.418Z,22.30
2018-02-18T12:12:46.090Z,25.40
2018-02-18T12:15:15.082Z,27.00
2018-02-18T12:17:44.002Z,25.08
2018-02-18T12:20:12.809Z,21.05
2018-02-18T12:22:40.814Z,22.33
2018-02-18T12:25:09.738Z,24.83
2018-02-18T12:27:38.675Z,22.67
2018-02-18T12:30:06.726Z,20.05
2018-02-18T12:32:35.143Z,22.23
2018-02-18T12:35:05.075Z,21.23
2018-02-18T12:37:34.045Z,22.37
2018-02-18T12:40:02.082Z,22.10
2018-02-18T12:42:30.114Z,21.95
2018-02-18T12:45:00.032Z,21.08
2018-02-18T12:47:32.097Z,23.80
2018-02-18T12:50:00.116Z,20.85
2018-02-18T12:52:35.177Z,19.15
2018-02-18T12:55:06.134Z,22.92
2018-02-18T12:57:36.097Z,23.17
2018-02-18T13:00:04.148Z,21.83
2018-02-18T13:02:33.026Z,19.23
2018-02-18T13:05:03.734Z,20.62
2018-02-18T13:07:31.797Z,16.23
2018-02-18T13:10:00.822Z,16.52
2018-02-18T13:12:35.097Z,16.95
2018-02-18T13:15:05.071Z,18.42
2018-02-18T13:17:36.191Z,14.90
2018-02-18T13:20:04.990Z,13.15
2018-02-18T13:22:34.590Z,14.95
2018-02-18T13:25:02.642Z,13.05
2018-02-18T13:27:35.414Z,15.82
2018-02-18T13:30:06.994Z,21.00
2018-02-18T13:32:35.439Z,14.55
2018-02-18T13:35:10.478Z,15.27
2018-02-18T13:37:42.194Z,14.40
2018-02-18T13:40:12.501Z,14.27
2018-02-18T13:42:43.594Z,22.17
2018-02-18T13:45:12.350Z,16.65
2018-02-18T13:47:41.241Z,15.23
2018-02-18T13:50:09.257Z,14.00
2018-02-18T13:52:41.702Z,14.60
2018-02-18T13:55:09.722Z,19.23
2018-02-18T14:00:48.967Z,16.27
2018-02-18T14:03:45.066Z,13.18
2018-02-18T14:06:34.318Z,10.95
2018-02-18T14:12:09.565Z,15.20
2018-02-18T14:14:52.257Z,13.65
2018-02-18T14:17:47.177Z,17.55
2018-02-18T14:20:19.869Z,16.92
2018-02-18T14:22:55.289Z,16.80
2018-02-18T14:25:32.549Z,14.70
2018-02-18T14:28:05.534Z,23.48
2018-02-18T14:30:34.061Z,16.58
2018-02-18T14:33:16.225Z,14.82
2018-02-18T14:35:46.933Z,16.10
2018-02-18T14:38:25.142Z,16.20
2018-02-18T14:41:17.645Z,14.90
2018-02-18T14:44:03.625Z,14.73
2018-02-18T14:46:44.422Z,14.45
2018-02-18T14:49:24.281Z,15.48
2018-02-18T14:52:06.157Z,16.90
2018-02-18T14:54:46.513Z,19.90
2018-02-18T14:57:28.445Z,16.45
2018-02-18T15:00:16.221Z,20.70
2018-02-18T15:05:39.717Z,16.42
2018-02-18T15:08:12.842Z,16.20
2018-02-18T15:10:43.073Z,16.17
2018-02-18T15:13:15.513Z,14.80
2018-02-18T15:15:57.737Z,15.32
2018-02-18T15:18:28.897Z,15.88
2018-02-18T15:21:12.157Z,18.20
2018-02-18T15:23:41.097Z,15.52
2018-02-18T15:26:14.609Z,19.37
2018-02-18T15:28:46.253Z,16.17
2018-02-18T15:31:17.997Z,15.77
2018-02-18T15:33:47.929Z,21.05
2018-02-18T15:36:15.973Z,18.58
2018-02-18T15:38:43.985Z,17.75
2018-02-18T15:41:24.177Z,21.48
2018-02-18T15:44:16.410Z,19.67
2018-02-18T15:46:55.762Z,18.70
2018-02-18T15:49:29.145Z,19.45
2018-02-18T15:51:59.485Z,21.40
2018-02-18T15:54:34.149Z,22.33
2018-02-18T15:57:02.193Z,23.77
2018-02-18T15:59:31.289Z,21.65
2018-02-18T16:02:09.329Z,25.23
2018-02-18T16:04:39.709Z,25.83
2018-02-18T16:07:18.148Z,23.98
2018-02-18T16:09:46.417Z,17.87
2018-02-18T16:12:22.573Z,23.15
2018-02-18T16:14:58.248Z,20.65
2018-02-18T16:17:27.357Z,24.45
2018-02-18T16:19:57.371Z,30.40
2018-02-18T16:22:33.481Z,29.70
2018-02-18T16:25:16.148Z,32.92
2018-02-18T16:27:48.577Z,29.90
2018-02-18T16:30:16.633Z,38.67
2018-02-18T16:32:48.113Z,28.98
2018-02-18T16:35:18.116Z,31.00
2018-02-18T16:37:54.753Z,28.55
2018-02-18T16:40:22.861Z,26.35
2018-02-18T16:42:56.125Z,30.33
2018-02-18T16:45:26.032Z,34.05
2018-02-18T16:48:01.533Z,26.17
2018-02-18T16:50:30.565Z,30.80
2018-02-18T16:52:58.577Z,30.02
2018-02-18T16:55:40.193Z,28.67
2018-02-18T16:58:13.369Z,31.35
2018-02-18T17:01:06.153Z,28.40
2018-02-18T17:03:41.408Z,25.98
2018-02-18T17:06:21.902Z,26.92
2018-02-18T17:08:51.916Z,30.35
2018-02-18T17:11:21.993Z,29.90
2018-02-18T17:13:51.977Z,38.10
2018-02-18T17:16:21.717Z,34.55
2018-02-18T17:18:55.056Z,25.20
2018-02-18T17:21:23.477Z,29.77
2018-02-18T17:23:56.617Z,28.65
2018-02-18T17:26:24.685Z,29.37
2018-02-18T17:28:52.705Z,34.95
2018-02-18T17:31:22.610Z,28.60
2018-02-18T17:33:52.597Z,30.45
2018-02-18T17:36:29.017Z,30.27
2018-02-18T17:38:57.022Z,35.97
2018-02-18T17:41:28.623Z,32.50
2018-02-18T17:43:59.326Z,29.58
2018-02-18T17:46:33.205Z,33.45
2018-02-18T17:49:03.137Z,43.67
2018-02-18T17:51:34.393Z,27.37
2018-02-18T17:54:08.153Z,31.75
2018-02-18T17:56:39.853Z,25.83
2018-02-18T17:59:08.929Z,27.60
2018-02-18T18:01:38.929Z,40.83
2018-02-18T18:04:06.945Z,32.92
2018-02-18T18:06:37.653Z,22.15
2018-02-18T18:09:10.409Z,26.12
2018-02-18T18:11:42.301Z,25.60
2018-02-18T18:14:10.353Z,24.65
2018-02-18T18:16:39.365Z,28.62
2018-02-18T18:22:05.177Z,27.20
2018-02-18T18:24:33.189Z,29.45
2018-02-18T18:27:07.713Z,30.95
2018-02-18T18:29:39.621Z,28.80
2018-02-18T18:32:08.533Z,34.65
2018-02-18T18:34:39.853Z,28.30
2018-02-18T18:37:12.573Z,36.22
2018-02-18T18:39:40.589Z,30.98
2018-02-18T18:42:10.501Z,30.75
2018-02-18T18:44:42.813Z,31.42
2018-02-18T18:47:10.825Z,32.63
2018-02-18T18:49:38.841Z,31.77
2018-02-18T18:52:07.825Z,31.35
2018-02-18T18:54:40.365Z,31.27
2018-02-18T18:57:16.121Z,30.70
2018-02-18T18:59:45.050Z,30.77
2018-02-18T19:02:16.493Z,29.60
2018-02-18T19:04:44.508Z,31.08
2018-02-18T19:07:13.277Z,29.58
2018-02-18T19:09:41.343Z,31.83
2018-02-18T19:12:09.328Z,28.12
2018-02-18T19:14:41.045Z,32.00
2018-02-18T19:17:09.053Z,34.90
2018-02-18T19:19:37.848Z,33.60
2018-02-18T19:22:08.546Z,28.48
2018-02-18T19:24:36.561Z,28.38
2018-02-18T19:27:04.569Z,31.17
2018-02-18T19:29:34.588Z,32.42
2018-02-18T19:32:06.361Z,33.97
2018-02-18T19:34:52.025Z,27.83
2018-02-18T19:37:21.033Z,30.35
2018-02-18T19:39:49.168Z,33.78
2018-02-18T19:42:19.545Z,32.78
2018-02-18T19:45:04.500Z,31.98
2018-02-18T19:47:33.425Z,32.50
2018-02-18T19:50:02.233Z,36.47
2018-02-18T19:52:30.257Z,30.20
2018-02-18T19:54:58.273Z,30.17
2018-02-18T19:57:26.332Z,34.20
2018-02-18T19:59:54.356Z,30.70
2018-02-18T20:02:33.073Z,34.45
2018-02-18T20:05:02.021Z,30.48
2018-02-18T20:07:30.041Z,30.25
2018-02-18T20:09:58.058Z,35.97
2018-02-18T20:12:26.101Z,35.80
2018-02-18T20:15:04.457Z,31.87
2018-02-18T20:17:35.213Z,30.95
2018-02-18T20:20:10.025Z,31.60
2018-02-18T20:22:39.937Z,33.85
2018-02-18T20:25:22.457Z,34.60
2018-02-18T20:27:53.928Z,29.77
2018-02-18T20:30:28.257Z,36.33
2018-02-18T20:33:17.333Z,33.65
2018-02-18T20:35:46.305Z,45.42
2018-02-18T20:38:16.309Z,28.35
2018-02-18T20:41:03.268Z,28.20
2018-02-18T20:43:34.388Z,31.62
2018-02-18T20:46:03.205Z,34.17
2018-02-18T20:48:32.148Z,33.22
2018-02-18T20:51:19.779Z,28.67
2018-02-18T20:54:00.903Z,34.65
2018-02-18T20:56:39.960Z,32.55
2018-02-18T20:59:18.897Z,27.33
2018-02-18T21:01:46.924Z,32.85
2018-02-18T21:04:38.540Z,28.10
2018-02-18T21:07:12.992Z,37.63
2018-02-18T21:09:41.012Z,33.67
2018-02-18T21:12:11.081Z,34.47
2018-02-18T21:14:40.013Z,37.90
2018-02-18T21:17:13.904Z,31.08
2018-02-18T21:19:48.628Z,36.28
2018-02-18T21:22:16.652Z,30.15
2018-02-18T21:24:48.520Z,31.08
2018-02-18T21:27:16.552Z,33.72
2018-02-18T21:29:55.648Z,28.27
2018-02-18T21:32:47.656Z,30.33
2018-02-18T21:35:19.217Z,29.95
2018-02-18T21:37:49.159Z,35.42
2018-02-18T21:40:28.676Z,37.30
2018-02-18T21:43:00.668Z,30.83
2018-02-18T21:45:52.356Z,35.92
2018-02-18T21:48:31.712Z,26.05
2018-02-18T21:51:20.828Z,35.67
2018-02-18T21:57:04.296Z,29.08
2018-02-18T21:59:35.922Z,28.30
2018-02-18T22:02:08.793Z,30.05
2018-02-18T22:07:50.964Z,32.05
2018-02-18T22:10:32.015Z,33.90
2018-02-18T22:13:01.003Z,35.97
2018-02-18T22:15:30.000Z,32.55
2018-02-18T22:18:05.360Z,28.52
2018-02-18T22:20:40.432Z,45.33
2018-02-18T22:23:16.856Z,41.03
2018-02-18T22:25:51.548Z,21.92
2018-02-18T22:28:20.708Z,28.02
2018-02-18T22:31:08.312Z,24.40
2018-02-18T22:33:39.912Z,27.90
2018-02-18T22:36:27.084Z,27.95
2018-02-18T22:39:07.804Z,31.33
2018-02-18T22:41:37.644Z,27.00
2018-02-18T22:44:24.127Z,35.83
2018-02-18T22:46:54.884Z,33.45
2018-02-18T22:49:22.944Z,21.65
2018-02-18T22:51:56.112Z,26.48
2018-02-18T22:54:29.867Z,31.10
2018-02-18T22:56:59.866Z,28.50
2018-02-18T22:59:27.895Z,34.88
2018-02-18T23:01:56.903Z,26.15
2018-02-18T23:04:29.046Z,24.15
2018-02-18T23:07:04.259Z,31.45
2018-02-18T23:09:33.263Z,33.50
2018-02-18T23:12:16.231Z,23.02
2018-02-18T23:14:48.476Z,30.98
2018-02-18T23:17:26.048Z,31.15
2018-02-18T23:20:19.887Z,26.80
2018-02-18T23:22:54.351Z,27.75
2018-02-18T23:25:23.287Z,24.67
2018-02-18T23:27:51.380Z,26.15
2018-02-18T23:30:21.339Z,26.90
2018-02-18T23:32:57.151Z,28.45
2018-02-18T23:35:41.608Z,28.85
2018-02-18T23:38:09.627Z,24.58
2018-02-18T23:40:39.407Z,35.22
2018-02-18T23:43:07.439Z,28.40
2018-02-18T23:45:36.471Z,25.37
2018-02-18T23:48:09.175Z,27.60
2018-02-18T23:50:38.003Z,27.23
2018-02-18T23:53:09.715Z,25.77
2018-02-18T23:55:39.409Z,24.08
2018-02-18T23:58:07.447Z,26.12
